Time;durP1;ratioP1;P1;durP2;ratioP2;P2;SDS_P1;SDS_P2;PMS_P1;PMS_P2;Temp;Humidity;BMP_temperature;BMP_pressure;BME280_temperature;BME280_humidity;BME280_pressure;Samples;Min_cycle;Max_cycle;Signal;HPM_P1;HPM_P2
2024/04/08 00:01:01;;;;;;;17.55;3.97;;;18.20;99.90;;;;;;4999162;28;20022;-53
2024/04/08 00:03:27;;;;;;;14.77;3.58;;;18.20;99.90;;;;;;5016083;28;20018;-51
2024/04/08 00:05:52;;;;;;;9.13;3.05;;;18.20;99.90;;;;;;4998609;28;20113;-46
2024/04/08 00:08:18;;;;;;;11.55;3.30;;;18.20;99.90;;;;;;4998405;28;20026;-51
2024/04/08 00:10:43;;;;;;;12.60;3.90;;;18.40;99.90;;;;;;5016672;28;20396;-54
2024/04/08 00:13:09;;;;;;;10.93;3.80;;;18.30;99.90;;;;;;5016316;28;20038;-50
2024/04/08 00:15:34;;;;;;;14.95;4.28;;;18.10;99.90;;;;;;4999349;28;20026;-53
2024/04/08 00:18:00;;;;;;;6.07;2.90;;;18.20;99.90;;;;;;5016636;28;20026;-53
2024/04/08 00:20:26;;;;;;;20.65;4.00;;;18.10;99.90;;;;;;5016459;28;20030;-52
2024/04/08 00:22:52;;;;;;;13.23;3.20;;;18.00;99.90;;;;;;5016979;28;20056;-49
2024/04/08 00:25:17;;;;;;;17.27;4.07;;;18.00;99.90;;;;;;5016691;28;20033;-50
2024/04/08 00:27:43;;;;;;;12.05;3.05;;;17.90;99.90;;;;;;5033586;23;20501;-45
2024/04/08 00:30:09;;;;;;;6.95;3.13;;;17.90;99.90;;;;;;5011640;28;20156;-47
2024/04/08 00:32:34;;;;;;;11.02;3.25;;;17.80;99.90;;;;;;5011426;28;20515;-49
2024/04/08 00:35:00;;;;;;;11.25;3.25;;;17.80;99.90;;;;;;5011193;28;20103;-43
2024/04/08 00:37:25;;;;;;;13.13;3.40;;;17.80;99.90;;;;;;5001386;28;20022;-45
2024/04/08 00:39:51;;;;;;;18.40;3.65;;;17.80;99.90;;;;;;4992652;28;20474;-45
2024/04/08 00:42:17;;;;;;;12.93;3.63;;;17.90;99.90;;;;;;4978243;28;20026;-49
2024/04/08 00:44:43;;;;;;;12.10;3.20;;;17.80;99.90;;;;;;4995453;28;20395;-43
2024/04/08 00:47:12;;;;;;;14.05;3.22;;;17.80;99.90;;;;;;4995258;28;20031;-43
2024/04/08 00:49:41;;;;;;;12.05;3.33;;;17.80;99.90;;;;;;4994948;28;20088;-48
2024/04/08 00:52:16;;;;;;;8.02;4.13;;;17.80;99.90;;;;;;4995999;28;20038;-47
2024/04/08 00:54:42;;;;;;;;;;;17.70;99.90;;;;;;4997165;28;20033;-46
2024/04/08 00:57:14;;;;;;;14.60;3.30;;;17.70;99.90;;;;;;4996545;28;20369;-48
2024/04/08 00:59:39;;;;;;;8.82;3.58;;;17.70;99.90;;;;;;4994865;28;20050;-45
2024/04/08 01:02:05;;;;;;;11.15;4.13;;;17.80;99.90;;;;;;4995081;28;20476;-47
2024/04/08 01:04:32;;;;;;;8.95;3.88;;;17.90;99.90;;;;;;4995001;28;20027;-49
2024/04/08 01:06:59;;;;;;;14.20;6.05;;;17.90;99.90;;;;;;4994900;28;20441;-47
2024/04/08 01:09:25;;;;;;;20.73;4.82;;;17.80;99.90;;;;;;4994855;28;20250;-47
2024/04/08 01:11:51;;;;;;;7.05;3.45;;;17.60;99.90;;;;;;4995092;28;20034;-46
2024/04/08 01:14:16;;;;;;;10.70;4.65;;;17.60;99.90;;;;;;4994753;28;20433;-46
2024/04/08 01:16:42;;;;;;;9.32;3.80;;;17.60;99.90;;;;;;4994672;28;20061;-47
2024/04/08 01:19:07;;;;;;;23.70;3.63;;;17.60;99.90;;;;;;4993095;28;20421;-46
2024/04/08 01:21:33;;;;;;;13.27;3.72;;;17.60;99.90;;;;;;4994946;28;20034;-44
2024/04/08 01:23:59;;;;;;;7.18;3.78;;;17.50;99.90;;;;;;4994643;28;20062;-44
2024/04/08 01:26:25;;;;;;;12.30;4.35;;;17.50;99.90;;;;;;4976739;28;20038;-44
2024/04/08 01:28:50;;;;;;;9.57;3.50;;;17.40;99.90;;;;;;4994339;28;20038;-45
2024/04/08 01:31:16;;;;;;;10.23;3.80;;;17.40;99.90;;;;;;4994452;28;20030;-46
2024/04/08 01:33:42;;;;;;;9.07;3.50;;;17.40;99.90;;;;;;4994931;28;20022;-45
2024/04/08 01:36:09;;;;;;;14.35;3.78;;;17.30;99.90;;;;;;4994443;28;20390;-45
2024/04/08 01:38:37;;;;;;;14.05;3.75;;;17.30;99.90;;;;;;4994071;28;20050;-44
2024/04/08 01:41:03;;;;;;;12.57;3.70;;;17.30;99.90;;;;;;4994325;28;20027;-48
2024/04/08 01:43:28;;;;;;;11.43;3.67;;;17.40;99.90;;;;;;4994174;28;20117;-47
2024/04/08 01:45:54;;;;;;;15.30;3.75;;;17.40;99.90;;;;;;4994341;28;20026;-46
2024/04/08 01:48:20;;;;;;;23.38;4.22;;;17.30;99.90;;;;;;4994299;28;20053;-44
2024/04/08 01:50:45;;;;;;;10.88;2.97;;;17.20;99.90;;;;;;4993816;28;20026;-48
2024/04/08 01:53:11;;;;;;;12.98;3.40;;;17.20;99.90;;;;;;4994018;28;20054;-46
2024/04/08 01:55:37;;;;;;;12.20;3.42;;;17.10;99.90;;;;;;4994039;28;20443;-48
2024/04/08 01:58:03;;;;;;;16.30;3.60;;;17.20;99.90;;;;;;4993713;28;20106;-44
2024/04/08 02:00:28;;;;;;;15.43;4.47;;;17.20;99.90;;;;;;4993688;28;20076;-48
2024/04/08 02:02:54;;;;;;;18.20;4.13;;;17.20;99.90;;;;;;4993870;28;20033;-47
2024/04/08 02:05:19;;;;;;;8.27;3.40;;;17.20;99.90;;;;;;4976624;28;20033;-44
2024/04/08 02:07:45;;;;;;;12.85;2.40;;;17.10;99.90;;;;;;4993643;28;20030;-44
2024/04/08 02:10:11;;;;;;;6.40;2.88;;;17.10;99.90;;;;;;4993515;28;20033;-44
2024/04/08 02:12:37;;;;;;;15.95;4.20;;;17.10;99.90;;;;;;4993655;28;20026;-43
2024/04/08 02:15:03;;;;;;;7.93;3.38;;;17.10;99.90;;;;;;4993588;28;20038;-46
2024/04/08 02:17:29;;;;;;;12.85;3.22;;;17.00;99.90;;;;;;4976099;28;20081;-44
2024/04/08 02:19:54;;;;;;;9.50;3.45;;;17.00;99.90;;;;;;4993395;28;20062;-48
2024/04/08 02:22:20;;;;;;;12.38;4.05;;;17.00;99.90;;;;;;4993500;28;20125;-45
2024/04/08 02:24:45;;;;;;;10.43;3.75;;;17.10;99.90;;;;;;4993627;28;20042;-45
2024/04/08 02:27:10;;;;;;;9.77;3.03;;;17.10;99.90;;;;;;4993247;28;20038;-43
2024/04/08 02:29:36;;;;;;;11.38;3.45;;;17.20;99.90;;;;;;4993179;28;20085;-44
2024/04/08 02:32:02;;;;;;;18.05;3.35;;;17.10;99.90;;;;;;4993271;28;20106;-44
2024/04/08 02:34:27;;;;;;;18.25;3.38;;;17.10;99.90;;;;;;4993158;28;20486;-44
2024/04/08 02:36:53;;;;;;;14.85;3.78;;;17.10;99.90;;;;;;4993238;28;20119;-47
2024/04/08 02:39:19;;;;;;;6.07;2.92;;;17.10;99.90;;;;;;4992897;28;20030;-45
2024/04/08 02:41:44;;;;;;;15.30;2.92;;;17.10;99.90;;;;;;4993230;28;20076;-47
2024/04/08 02:44:10;;;;;;;11.85;2.92;;;17.10;99.90;;;;;;4993220;28;20030;-42
2024/04/08 02:46:35;;;;;;;11.65;3.60;;;17.20;99.90;;;;;;4993648;28;20080;-50
2024/04/08 02:49:00;;;;;;;11.13;4.15;;;17.20;99.90;;;;;;4993386;28;20076;-44
2024/04/08 02:51:26;;;;;;;14.30;4.40;;;17.20;99.90;;;;;;4993440;28;20402;-45
2024/04/08 02:53:52;;;;;;;8.15;2.95;;;17.20;99.90;;;;;;4993324;28;20019;-46
2024/04/08 02:56:17;;;;;;;6.95;3.17;;;17.30;99.90;;;;;;4975584;28;20018;-45
2024/04/08 02:58:45;;;;;;;7.75;3.45;;;17.30;99.90;;;;;;4993278;28;20494;-45
2024/04/08 03:01:11;;;;;;;9.45;3.38;;;17.20;99.90;;;;;;4992708;28;20069;-48
2024/04/08 03:03:37;;;;;;;12.43;4.25;;;17.20;99.90;;;;;;4992123;28;20524;-47
2024/04/08 03:06:13;;;;;;;6.90;3.30;;;17.20;99.90;;;;;;4992692;28;20034;-45
2024/04/08 03:08:40;;;;;;;9.57;3.67;;;17.20;99.90;;;;;;4992303;28;20050;-49
2024/04/08 03:11:06;;;;;;;14.98;4.25;;;17.20;99.90;;;;;;4992903;28;20019;-46
2024/04/08 03:13:32;;;;;;;9.73;3.92;;;17.20;99.90;;;;;;4992636;28;20029;-44
2024/04/08 03:15:58;;;;;;;7.82;3.35;;;17.20;99.90;;;;;;4992665;28;20022;-46
2024/04/08 03:18:24;;;;;;;14.20;3.80;;;17.10;99.90;;;;;;4992460;28;20026;-46
2024/04/08 03:21:00;;;;;;;13.25;3.22;;;17.00;99.90;;;;;;4992559;28;20031;-45
2024/04/08 03:23:26;;;;;;;16.20;3.67;;;17.00;99.90;;;;;;4974872;28;20023;-47
2024/04/08 03:26:01;;;;;;;11.73;3.08;;;17.10;99.90;;;;;;4992324;28;20106;-49
2024/04/08 03:28:27;;;;;;;22.63;3.45;;;17.00;99.90;;;;;;4991900;28;20026;-46
2024/04/08 03:30:53;;;;;;;15.95;3.80;;;17.00;99.90;;;;;;4992408;28;20034;-50
2024/04/08 03:33:26;;;;;;;11.48;2.88;;;17.00;99.90;;;;;;4992165;28;20307;-45
2024/04/08 03:35:52;;;;;;;14.50;3.58;;;17.00;99.90;;;;;;4974998;28;20426;-47
2024/04/08 03:38:19;;;;;;;9.35;3.00;;;17.00;99.90;;;;;;4974423;28;20037;-47
2024/04/08 03:40:45;;;;;;;5.95;2.83;;;17.10;99.90;;;;;;4974693;28;20062;-45
2024/04/08 03:43:11;;;;;;;11.07;3.00;;;17.00;99.90;;;;;;4992154;28;20109;-49
2024/04/08 03:45:38;;;;;;;8.73;2.50;;;17.10;99.90;;;;;;4992281;28;20086;-49
2024/04/08 03:48:04;;;;;;;5.05;2.28;;;17.10;99.90;;;;;;4992085;28;20516;-48
2024/04/08 03:50:31;;;;;;;11.27;3.60;;;17.10;99.90;;;;;;4991892;28;20026;-49
2024/04/08 03:52:57;;;;;;;8.93;2.47;;;17.20;99.90;;;;;;4991960;28;20026;-46
2024/04/08 03:55:29;;;;;;;9.23;2.42;;;17.20;99.90;;;;;;4992030;28;20030;-45
2024/04/08 03:57:56;;;;;;;17.60;2.53;;;17.20;99.90;;;;;;4992016;28;20563;-47
2024/04/08 04:00:22;;;;;;;10.43;2.30;;;17.20;99.90;;;;;;4992035;28;20374;-45
2024/04/08 04:02:48;;;;;;;5.45;2.00;;;17.20;99.90;;;;;;4992020;28;20026;-47
2024/04/08 04:05:14;;;;;;;11.60;3.00;;;17.20;99.90;;;;;;4992351;28;20559;-50
2024/04/08 04:07:39;;;;;;;4.63;2.63;;;17.30;99.90;;;;;;4992400;28;20113;-45
2024/04/08 04:10:06;;;;;;;12.00;2.20;;;17.30;99.90;;;;;;4991921;28;20382;-47
2024/04/08 04:12:39;;;;;;;9.23;2.60;;;17.30;99.90;;;;;;4992313;28;20033;-47
2024/04/08 04:15:05;;;;;;;12.00;2.72;;;17.30;99.90;;;;;;4995908;28;20018;-48
2024/04/08 04:17:31;;;;;;;13.93;2.60;;;17.30;99.90;;;;;;4996207;28;20022;-46
2024/04/08 04:19:57;;;;;;;11.38;2.17;;;17.30;99.90;;;;;;4995568;28;20385;-50
2024/04/08 04:22:22;;;;;;;3.92;1.80;;;17.30;99.90;;;;;;4995849;28;20504;-45
2024/04/08 04:24:48;;;;;;;5.40;2.55;;;17.30;99.90;;;;;;4978098;28;20033;-46
2024/04/08 04:27:13;;;;;;;11.45;2.30;;;17.30;99.90;;;;;;4995428;28;20053;-45
2024/04/08 04:29:39;;;;;;;17.50;2.50;;;17.30;99.90;;;;;;4977640;28;20030;-47
2024/04/08 04:32:05;;;;;;;8.07;2.63;;;17.30;99.90;;;;;;4995529;28;20030;-47
2024/04/08 04:34:30;;;;;;;8.57;3.25;;;17.30;99.90;;;;;;4978085;28;20018;-44
2024/04/08 04:36:56;;;;;;;10.65;3.25;;;17.20;99.90;;;;;;4995461;28;20019;-44
2024/04/08 04:39:22;;;;;;;9.95;3.03;;;17.20;99.90;;;;;;4995125;28;20034;-50
2024/04/08 04:41:50;;;;;;;7.60;3.03;;;17.10;99.90;;;;;;4995486;28;20597;-46
2024/04/08 04:44:16;;;;;;;18.75;3.10;;;17.00;99.90;;;;;;4995401;28;20030;-48
2024/04/08 04:46:41;;;;;;;8.93;3.58;;;17.00;99.90;;;;;;4977954;28;20030;-50
2024/04/08 04:49:07;;;;;;;15.52;3.97;;;16.90;99.90;;;;;;4995160;28;20033;-44
2024/04/08 04:51:32;;;;;;;11.32;3.20;;;16.90;99.90;;;;;;4977810;28;20026;-50
2024/04/08 04:53:58;;;;;;;16.98;3.67;;;17.00;99.90;;;;;;4995243;28;20061;-49
2024/04/08 04:56:23;;;;;;;6.68;2.55;;;16.90;99.90;;;;;;4995202;28;20026;-45
2024/04/08 04:58:49;;;;;;;14.85;3.83;;;16.80;99.90;;;;;;4994846;28;20054;-46
2024/04/08 05:01:14;;;;;;;8.75;3.30;;;16.80;99.90;;;;;;4995114;28;20430;-48
2024/04/08 05:03:40;;;;;;;14.13;3.30;;;16.70;99.90;;;;;;4995153;28;20058;-46
2024/04/08 05:06:05;;;;;;;8.32;3.42;;;16.70;99.90;;;;;;4995109;28;20026;-45
2024/04/08 05:08:31;;;;;;;11.52;3.83;;;16.80;99.90;;;;;;4994632;28;20108;-46
2024/04/08 05:10:56;;;;;;;10.75;3.88;;;16.80;99.90;;;;;;4994971;28;20114;-50
2024/04/08 05:13:22;;;;;;;14.80;4.03;;;16.80;99.90;;;;;;4994874;28;20034;-44
2024/04/08 05:16:01;;;;;;;14.13;3.92;;;16.80;99.90;;;;;;4995104;28;20023;-47
2024/04/08 05:18:28;;;;;;;16.10;4.50;;;16.70;99.90;;;;;;4976932;28;20026;-45
2024/04/08 05:20:54;;;;;;;8.20;2.88;;;16.70;99.90;;;;;;4994821;28;20109;-45
2024/04/08 05:23:23;;;;;;;17.88;4.75;;;16.70;99.90;;;;;;4995049;28;20506;-45
2024/04/08 05:25:49;;;;;;;15.10;4.15;;;16.70;99.90;;;;;;4993962;28;20026;-47
2024/04/08 05:28:15;;;;;;;26.20;5.32;;;16.70;99.90;;;;;;4994114;28;20038;-45
2024/04/08 05:30:41;;;;;;;20.13;3.95;;;16.80;99.90;;;;;;4994560;28;20379;-46
2024/04/08 05:33:07;;;;;;;11.95;4.35;;;16.90;99.90;;;;;;4994663;28;20088;-46
2024/04/08 05:35:32;;;;;;;12.93;3.63;;;16.90;99.90;;;;;;4994406;28;20022;-47
2024/04/08 05:37:58;;;;;;;17.63;3.22;;;17.00;99.90;;;;;;4994251;28;20080;-47
2024/04/08 05:40:24;;;;;;;14.15;3.38;;;17.00;99.90;;;;;;4994311;28;20113;-51
2024/04/08 05:42:50;;;;;;;13.13;3.90;;;17.20;99.90;;;;;;4994612;28;20022;-46
2024/04/08 05:45:15;;;;;;;13.63;4.03;;;17.20;99.90;;;;;;4994373;28;20149;-47
2024/04/08 05:47:41;;;;;;;8.90;3.42;;;17.40;99.90;;;;;;4994166;28;20026;-49
2024/04/08 05:50:06;;;;;;;21.30;3.60;;;17.60;99.90;;;;;;4993986;28;20026;-45
2024/04/08 05:52:33;;;;;;;18.02;4.15;;;17.70;99.90;;;;;;4994137;28;20127;-49
2024/04/08 05:54:58;;;;;;;16.48;4.00;;;17.80;99.90;;;;;;4994164;28;20042;-48
2024/04/08 05:57:25;;;;;;;14.57;3.67;;;17.90;99.90;;;;;;4993883;28;20067;-48
2024/04/08 05:59:51;;;;;;;9.30;3.75;;;18.10;99.90;;;;;;4993920;28;20050;-47
2024/04/08 06:02:16;;;;;;;17.10;3.38;;;18.20;99.90;;;;;;4976563;28;20069;-48
2024/04/08 06:04:42;;;;;;;14.00;3.97;;;18.40;99.90;;;;;;4994035;28;20206;-48
2024/04/08 06:07:10;;;;;;;10.50;3.15;;;18.50;99.90;;;;;;4993866;28;20081;-46
2024/04/08 06:09:36;;;;;;;9.02;3.40;;;18.80;99.90;;;;;;4993686;28;20054;-48
2024/04/08 06:12:02;;;;;;;15.82;4.22;;;19.00;99.90;;;;;;4994438;28;20065;-46
2024/04/08 06:14:27;;;;;;;14.25;3.80;;;19.30;99.90;;;;;;4994038;28;20027;-44
2024/04/08 06:16:53;;;;;;;8.52;4.22;;;19.50;99.90;;;;;;4993953;28;20409;-46
2024/04/08 06:19:19;;;;;;;11.85;3.53;;;19.50;99.90;;;;;;4994513;28;20023;-48
2024/04/08 06:21:45;;;;;;;11.48;4.18;;;19.70;99.90;;;;;;4994385;28;20074;-51
2024/04/08 06:24:11;;;;;;;9.50;3.63;;;19.90;99.90;;;;;;4994013;28;20030;-45
2024/04/08 06:26:40;;;;;;;10.13;3.70;;;20.10;99.90;;;;;;4993880;28;20030;-45
2024/04/08 06:29:05;;;;;;;11.35;3.50;;;20.20;99.90;;;;;;4993678;28;20026;-52
2024/04/08 06:31:31;;;;;;;11.20;3.72;;;20.40;99.90;;;;;;4993755;28;20045;-49
2024/04/08 06:33:56;;;;;;;10.48;4.03;;;20.60;99.90;;;;;;4993538;28;20026;-47
2024/04/08 06:36:22;;;;;;;11.80;3.42;;;20.80;99.90;;;;;;4993281;28;20026;-49
2024/04/08 06:38:47;;;;;;;9.98;2.95;;;21.10;99.90;;;;;;4992964;28;20157;-46
2024/04/08 06:41:15;;;;;;;11.70;3.35;;;21.30;99.90;;;;;;4993805;28;20027;-49
2024/04/08 06:43:41;;;;;;;13.40;3.10;;;21.50;99.90;;;;;;4993467;28;20035;-46
2024/04/08 06:46:08;;;;;;;11.40;3.20;;;21.70;99.90;;;;;;4993560;28;20508;-46
2024/04/08 06:48:33;;;;;;;17.60;4.13;;;21.90;99.90;;;;;;4992742;28;20069;-49
2024/04/08 06:50:59;;;;;;;12.05;3.13;;;22.30;99.90;;;;;;4993190;28;20482;-46
2024/04/08 06:53:24;;;;;;;7.15;2.65;;;22.70;99.90;;;;;;4992970;28;20042;-47
2024/04/08 06:55:50;;;;;;;12.93;4.25;;;23.20;99.90;;;;;;4993022;28;20034;-46
2024/04/08 06:58:19;;;;;;;17.50;3.42;;;23.70;99.90;;;;;;4992710;28;20029;-48
2024/04/08 07:00:46;;;;;;;10.70;3.33;;;24.30;99.90;;;;;;4992895;28;20030;-49
2024/04/08 07:03:11;;;;;;;17.05;4.20;;;24.60;99.10;;;;;;4992933;28;20030;-46
2024/04/08 07:05:37;;;;;;;12.05;2.70;;;24.90;97.70;;;;;;4992835;28;20030;-48
2024/04/08 07:08:02;;;;;;;19.38;3.60;;;25.40;97.30;;;;;;4992639;28;20037;-48
2024/04/08 07:10:28;;;;;;;10.75;2.95;;;25.70;96.50;;;;;;4992532;28;20030;-47
2024/04/08 07:12:54;;;;;;;14.50;2.80;;;26.00;96.40;;;;;;4992717;28;20066;-48
2024/04/08 07:15:20;;;;;;;10.57;3.20;;;26.30;96.00;;;;;;4991941;28;20490;-46
2024/04/08 07:17:46;;;;;;;13.73;3.08;;;26.50;95.10;;;;;;4998086;28;20021;-50
2024/04/08 07:20:12;;;;;;;15.95;2.92;;;26.80;95.00;;;;;;5009324;28;20030;-49
2024/04/08 07:22:38;;;;;;;14.60;3.17;;;27.10;93.70;;;;;;4993143;28;20030;-46
2024/04/08 07:25:04;;;;;;;8.02;2.58;;;26.70;93.50;;;;;;4994390;28;20608;-51
2024/04/08 07:27:30;;;;;;;10.10;3.33;;;26.80;93.50;;;;;;4993363;28;20497;-51
2024/04/08 07:29:55;;;;;;;16.58;2.63;;;26.80;93.30;;;;;;4995968;28;20037;-48
2024/04/08 07:32:22;;;;;;;10.25;2.70;;;27.20;93.20;;;;;;4995350;28;20561;-49
2024/04/08 07:34:47;;;;;;;9.23;2.50;;;27.20;92.60;;;;;;4991881;28;20044;-48
2024/04/08 07:37:13;;;;;;;6.95;2.92;;;27.10;92.70;;;;;;4992265;28;20033;-46
2024/04/08 07:39:39;;;;;;;8.80;2.65;;;27.10;92.80;;;;;;5003807;28;20507;-49
2024/04/08 07:42:05;;;;;;;17.80;2.85;;;27.30;91.90;;;;;;4992138;28;20114;-46
2024/04/08 07:44:30;;;;;;;11.30;2.92;;;27.60;92.30;;;;;;5000920;28;20434;-48
2024/04/08 07:46:56;;;;;;;8.93;2.47;;;28.00;91.00;;;;;;5009115;28;20050;-48
2024/04/08 07:49:22;;;;;;;15.30;2.97;;;28.40;90.60;;;;;;4992584;28;20396;-46
2024/04/08 07:51:47;;;;;;;15.68;3.00;;;28.30;90.60;;;;;;4997048;28;20026;-48
2024/04/08 07:54:14;;;;;;;17.33;3.20;;;28.60;90.00;;;;;;4994811;28;20088;-49
2024/04/08 07:56:40;;;;;;;8.68;2.13;;;28.30;89.90;;;;;;5000817;28;20014;-46
2024/04/08 07:59:06;;;;;;;9.45;2.75;;;28.60;90.00;;;;;;5003546;28;20033;-43
2024/04/08 08:01:31;;;;;;;11.15;2.17;;;28.70;88.50;;;;;;4972582;28;20026;-46
2024/04/08 08:03:57;;;;;;;10.98;3.58;;;28.70;87.00;;;;;;4985864;28;20401;-48
2024/04/08 08:06:22;;;;;;;7.93;2.53;;;28.40;86.60;;;;;;5011562;28;20034;-50
2024/04/08 08:08:48;;;;;;;9.00;3.15;;;28.50;87.30;;;;;;5011214;28;20037;-50
2024/04/08 08:11:14;;;;;;;13.35;2.35;;;28.60;86.80;;;;;;4992873;28;20529;-48
2024/04/08 08:13:39;;;;;;;9.45;2.42;;;28.80;85.90;;;;;;5007569;28;20104;-50
2024/04/08 08:16:05;;;;;;;7.55;2.35;;;29.10;84.30;;;;;;5002407;28;20378;-45
2024/04/08 08:18:31;;;;;;;15.18;3.67;;;29.30;83.50;;;;;;4997115;28;20034;-47
2024/04/08 08:20:59;;;;;;;14.60;3.38;;;29.70;82.70;;;;;;4998355;28;20031;-46
2024/04/08 08:23:25;;;;;;;15.23;2.67;;;29.70;81.10;;;;;;5001707;28;20453;-48
2024/04/08 08:25:50;;;;;;;21.40;2.60;;;29.50;81.70;;;;;;4999241;28;20060;-46
2024/04/08 08:28:16;;;;;;;13.15;3.45;;;29.70;80.80;;;;;;4998432;28;20040;-51
2024/04/08 08:30:41;;;;;;;27.65;2.67;;;30.30;79.50;;;;;;4991994;28;20057;-46
2024/04/08 08:33:07;;;;;;;9.35;2.00;;;30.60;77.10;;;;;;4983548;28;20109;-49
2024/04/08 08:35:33;;;;;;;11.20;2.05;;;30.70;76.40;;;;;;5000637;28;20026;-47
2024/04/08 08:38:01;;;;;;;14.30;3.42;;;30.60;73.60;;;;;;4991023;28;20026;-49
2024/04/08 08:40:27;;;;;;;8.23;2.70;;;30.50;75.00;;;;;;5003782;28;20434;-48
2024/04/08 08:42:56;;;;;;;15.15;2.38;;;30.80;74.60;;;;;;5003604;28;20494;-47
2024/04/08 08:45:22;;;;;;;14.30;2.50;;;30.70;73.90;;;;;;5006659;28;20036;-51
2024/04/08 08:47:47;;;;;;;6.03;2.15;;;30.80;75.00;;;;;;4975194;28;20113;-48
2024/04/08 08:50:13;;;;;;;9.65;2.40;;;30.80;74.00;;;;;;4991396;28;20034;-49
2024/04/08 08:52:39;;;;;;;11.25;3.10;;;30.50;74.10;;;;;;4991562;28;20117;-49
2024/04/08 08:55:05;;;;;;;11.27;3.03;;;30.20;74.90;;;;;;4991660;28;20090;-46
2024/04/08 08:57:30;;;;;;;18.35;2.47;;;30.10;74.90;;;;;;4974119;28;20030;-46
2024/04/08 08:59:58;;;;;;;19.80;4.55;;;29.90;74.50;;;;;;4991362;28;20025;-46
2024/04/08 09:02:25;;;;;;;12.32;2.88;;;29.40;74.90;;;;;;4995114;28;20060;-46
2024/04/08 09:04:52;;;;;;;12.60;2.20;;;29.20;75.10;;;;;;4977610;28;20053;-51
2024/04/08 09:07:18;;;;;;;10.65;2.25;;;29.20;75.80;;;;;;4994877;28;20402;-48
2024/04/08 09:09:57;;;;;;;10.25;2.70;;;29.50;75.50;;;;;;4994856;28;20034;-49
2024/04/08 09:12:24;;;;;;;17.42;2.42;;;29.40;75.40;;;;;;4995246;28;20091;-49
2024/04/08 09:14:51;;;;;;;16.02;2.22;;;29.60;76.20;;;;;;4995026;28;20031;-47
2024/04/08 09:17:17;;;;;;;12.02;3.45;;;29.80;76.40;;;;;;4995011;28;20023;-52
2024/04/08 09:19:43;;;;;;;11.73;2.50;;;29.90;75.00;;;;;;4994682;28;20126;-46
2024/04/08 09:22:09;;;;;;;15.63;3.38;;;29.70;76.40;;;;;;4994882;28;20077;-46
2024/04/08 09:24:35;;;;;;;15.43;3.17;;;29.20;73.70;;;;;;4994979;28;20553;-51
2024/04/08 09:27:01;;;;;;;17.38;2.85;;;28.90;75.20;;;;;;4994587;28;20038;-52
2024/04/08 09:29:27;;;;;;;8.48;2.58;;;28.80;76.60;;;;;;4994936;28;20026;-47
2024/04/08 09:31:53;;;;;;;13.02;6.28;;;28.50;76.90;;;;;;4994616;28;20041;-47
2024/04/08 09:34:19;;;;;;;13.18;6.07;;;28.60;77.20;;;;;;4994984;28;20030;-47
2024/04/08 09:36:45;;;;;;;7.63;2.92;;;28.60;78.00;;;;;;4994738;28;20463;-52
2024/04/08 09:39:12;;;;;;;12.82;2.53;;;28.60;78.60;;;;;;4994645;28;20026;-49
2024/04/08 09:41:39;;;;;;;8.98;2.25;;;28.60;79.10;;;;;;4994099;28;20118;-49
2024/04/08 09:44:12;;;;;;;14.55;3.85;;;28.50;77.30;;;;;;4993903;28;20089;-51
2024/04/08 09:46:40;;;;;;;13.45;2.50;;;28.20;75.80;;;;;;4994108;28;20401;-48
2024/04/08 09:49:09;;;;;;;17.67;3.05;;;27.80;76.80;;;;;;4973874;28;20030;-48
2024/04/08 09:51:38;;;;;;;6.15;1.60;;;27.60;76.40;;;;;;4989152;28;20118;-48
2024/04/08 09:54:04;;;;;;;6.43;2.15;;;27.40;76.00;;;;;;4994168;28;20023;-47
2024/04/08 09:56:31;;;;;;;12.68;2.53;;;27.30;79.20;;;;;;4993810;28;20082;-45
2024/04/08 09:59:17;;;;;;;9.73;2.40;;;27.20;78.50;;;;;;4991134;28;20029;-50
2024/04/08 10:01:44;;;;;;;13.30;4.05;;;27.20;79.50;;;;;;4991823;28;20045;-47
2024/04/08 10:04:19;;;;;;;8.27;2.00;;;27.10;79.70;;;;;;4991615;28;20273;-50
2024/04/08 10:06:46;;;;;;;11.55;2.72;;;27.00;80.80;;;;;;4991324;28;20120;-48
2024/04/08 10:09:12;;;;;;;14.85;4.07;;;26.80;77.50;;;;;;4974356;28;20031;-51
2024/04/08 10:11:37;;;;;;;13.52;3.22;;;26.80;79.60;;;;;;4993267;28;20018;-47
2024/04/08 10:14:03;;;;;;;11.80;2.20;;;26.80;79.80;;;;;;4993763;28;20046;-48
2024/04/08 10:16:29;;;;;;;14.93;2.70;;;26.50;80.30;;;;;;4993444;28;20509;-45
2024/04/08 10:18:55;;;;;;;13.98;2.35;;;26.20;81.30;;;;;;4993407;28;20134;-45
2024/04/08 10:21:23;;;;;;;20.45;3.65;;;26.10;82.40;;;;;;4994537;28;20486;-47
2024/04/08 10:23:52;;;;;;;17.50;2.58;;;26.10;82.10;;;;;;4994225;28;20022;-46
2024/04/08 10:26:18;;;;;;;11.50;2.50;;;26.10;82.10;;;;;;4993540;28;20622;-46
2024/04/08 10:28:44;;;;;;;14.07;2.47;;;26.10;81.50;;;;;;4993792;28;20034;-48
2024/04/08 10:31:12;;;;;;;13.25;3.05;;;26.10;82.20;;;;;;4995053;28;20490;-45
2024/04/08 10:33:37;;;;;;;9.60;3.03;;;26.30;83.10;;;;;;4994878;28;20030;-45
2024/04/08 10:36:03;;;;;;;11.00;2.47;;;26.00;81.50;;;;;;4995013;28;20049;-46
2024/04/08 10:38:29;;;;;;;15.55;3.25;;;25.80;82.60;;;;;;4995143;28;20030;-49
2024/04/08 10:40:54;;;;;;;18.02;5.22;;;25.50;83.40;;;;;;4995030;28;20026;-54
2024/04/08 10:43:22;;;;;;;13.75;5.05;;;25.30;83.40;;;;;;4993803;28;20502;-48
2024/04/08 10:45:49;;;;;;;16.30;2.80;;;25.10;84.20;;;;;;4993297;28;20030;-44
2024/04/08 10:48:16;;;;;;;15.60;2.40;;;24.90;83.20;;;;;;4992882;28;20422;-46
2024/04/08 10:50:42;;;;;;;17.38;2.58;;;24.80;82.30;;;;;;4992924;28;20101;-45
2024/04/08 10:53:08;;;;;;;20.13;3.35;;;24.70;83.40;;;;;;4992597;28;20030;-47
2024/04/08 10:55:34;;;;;;;16.70;2.97;;;24.90;85.20;;;;;;4992585;28;20097;-46
2024/04/08 10:57:59;;;;;;;11.48;3.40;;;25.10;85.00;;;;;;4992625;28;20026;-46
2024/04/08 11:00:26;;;;;;;11.60;2.45;;;25.30;84.00;;;;;;4992649;28;20025;-48
2024/04/08 11:02:52;;;;;;;11.90;2.83;;;25.40;84.30;;;;;;4992749;28;20486;-50
2024/04/08 11:05:18;;;;;;;14.25;2.55;;;25.50;84.50;;;;;;4975061;28;20049;-46
2024/04/08 11:07:44;;;;;;;11.90;2.65;;;25.50;83.40;;;;;;4992531;28;20450;-47
2024/04/08 11:10:15;;;;;;;10.32;3.10;;;25.60;84.90;;;;;;4992397;28;20030;-48
2024/04/08 11:12:41;;;;;;;11.68;2.70;;;25.60;82.80;;;;;;4992609;28;20026;-43
2024/04/08 11:15:09;;;;;;;11.10;2.38;;;25.70;82.00;;;;;;4992532;28;20018;-45
2024/04/08 11:17:35;;;;;;;10.18;2.58;;;25.70;81.40;;;;;;4992518;28;20369;-45
2024/04/08 11:20:03;;;;;;;14.90;3.30;;;25.60;80.30;;;;;;4993261;28;20032;-46
2024/04/08 11:22:28;;;;;;;10.00;2.25;;;25.70;79.10;;;;;;4992837;28;20026;-46
2024/04/08 11:24:55;;;;;;;10.18;2.70;;;25.60;78.30;;;;;;4991786;28;20117;-49
2024/04/08 11:27:26;;;;;;;16.27;6.60;;;25.50;80.10;;;;;;4992134;28;20374;-45
2024/04/08 11:29:53;;;;;;;12.45;2.63;;;25.60;80.80;;;;;;4992404;28;20057;-45
2024/04/08 11:32:22;;;;;;;8.63;4.32;;;25.50;78.20;;;;;;4992411;28;20054;-47
2024/04/08 11:34:49;;;;;;;14.88;2.60;;;25.50;78.40;;;;;;4992129;28;20445;-46
2024/04/08 11:37:15;;;;;;;10.10;2.88;;;25.50;80.10;;;;;;4992004;28;20022;-49
2024/04/08 11:39:42;;;;;;;10.82;1.85;;;25.60;81.00;;;;;;4992038;28;20050;-52
2024/04/08 11:42:08;;;;;;;12.20;2.33;;;25.50;79.40;;;;;;4975142;28;20027;-44
2024/04/08 11:44:35;;;;;;;14.05;2.78;;;25.50;79.40;;;;;;4992677;28;20030;-42
2024/04/08 11:47:02;;;;;;;9.48;2.92;;;25.50;80.60;;;;;;4991314;28;20484;-48
2024/04/08 11:49:28;;;;;;;13.38;2.70;;;25.40;81.40;;;;;;4973016;28;20031;-47
2024/04/08 11:51:54;;;;;;;15.35;3.72;;;25.50;81.20;;;;;;4990952;28;20033;-45
2024/04/08 11:54:19;;;;;;;18.13;3.10;;;25.50;81.30;;;;;;4974835;28;20022;-46
2024/04/08 11:56:45;;;;;;;14.70;3.13;;;25.50;80.70;;;;;;4992030;28;20049;-44
2024/04/08 11:59:11;;;;;;;13.68;2.30;;;25.60;81.90;;;;;;4992645;28;20022;-45
2024/04/08 12:01:36;;;;;;;15.80;2.47;;;25.60;80.60;;;;;;4974834;28;20025;-45
2024/04/08 12:04:06;;;;;;;12.00;2.35;;;25.60;79.70;;;;;;4992575;28;20037;-46
2024/04/08 12:06:31;;;;;;;12.40;2.83;;;25.50;80.80;;;;;;4992260;28;20117;-44
2024/04/08 12:08:57;;;;;;;10.07;2.53;;;25.60;80.50;;;;;;4992126;28;20101;-45
2024/04/08 12:11:23;;;;;;;14.25;3.58;;;25.60;81.30;;;;;;4992491;28;20068;-44
2024/04/08 12:13:49;;;;;;;10.80;2.30;;;25.70;82.20;;;;;;4992242;28;20442;-47
2024/04/08 12:16:15;;;;;;;8.50;2.05;;;25.90;82.70;;;;;;4974514;28;20117;-48
2024/04/08 12:18:42;;;;;;;10.30;2.67;;;25.90;81.20;;;;;;4992313;28;20027;-46
2024/04/08 12:21:07;;;;;;;12.02;2.38;;;26.00;81.50;;;;;;4974386;28;20023;-47
2024/04/08 12:23:33;;;;;;;19.27;3.25;;;25.80;81.40;;;;;;4991870;28;20505;-52
2024/04/08 12:25:58;;;;;;;25.60;5.65;;;25.80;81.90;;;;;;4991764;28;20505;-50
2024/04/08 12:28:24;;;;;;;24.60;10.30;;;25.70;79.90;;;;;;5026168;23;20077;-54
2024/04/08 12:30:49;;;;;;;24.98;6.10;;;25.70;81.00;;;;;;4993797;28;20507;-53
2024/04/08 12:33:15;;;;;;;15.00;2.80;;;25.70;80.80;;;;;;5011487;28;20080;-55
2024/04/08 12:35:40;;;;;;;20.20;3.03;;;25.70;78.00;;;;;;5012795;28;20026;-54